createdAt,value
2017-06-25T00:01:06.236Z,934.78
2017-06-25T00:01:34.320Z,934.71
2017-06-25T00:02:02.637Z,934.79
2017-06-25T00:02:30.645Z,934.79
2017-06-25T00:02:58.822Z,934.85
2017-06-25T00:03:27.113Z,934.83
2017-06-25T00:03:55.224Z,934.82
2017-06-25T00:04:23.433Z,934.84
2017-06-25T00:04:51.712Z,934.83
2017-06-25T00:05:19.800Z,934.8
2017-06-25T00:05:47.984Z,934.84
2017-06-25T00:06:59.341Z,934.83
2017-06-25T00:07:27.429Z,934.88
2017-06-25T00:07:55.552Z,934.88
2017-06-25T00:08:23.837Z,934.91
2017-06-25T00:08:52.016Z,934.85
2017-06-25T00:09:20.111Z,934.86
2017-06-25T00:09:48.407Z,934.84
2017-06-25T00:10:16.698Z,934.87
2017-06-25T00:10:44.976Z,934.94
2017-06-25T00:11:13.251Z,934.92
2017-06-25T00:11:41.532Z,934.88
2017-06-25T00:12:52.896Z,934.9
2017-06-25T00:13:21.170Z,934.95
2017-06-25T00:13:49.483Z,934.92
2017-06-25T00:14:17.768Z,934.94
2017-06-25T00:14:46.043Z,934.98
2017-06-25T00:15:14.229Z,934.94
2017-06-25T00:15:42.526Z,934.96
2017-06-25T00:16:10.822Z,934.97
2017-06-25T00:16:39.101Z,934.99
2017-06-25T00:17:07.380Z,934.99
2017-06-25T00:17:35.660Z,934.98
2017-06-25T00:18:46.930Z,935
2017-06-25T00:19:15.112Z,935.02
2017-06-25T00:19:43.430Z,935.01
2017-06-25T00:20:11.621Z,935.03
2017-06-25T00:20:39.721Z,935.05
2017-06-25T00:21:07.889Z,935.05
2017-06-25T00:21:36.184Z,935.1
2017-06-25T00:22:04.389Z,935.07
2017-06-25T00:22:32.661Z,935.05
2017-06-25T00:23:00.942Z,935.05
2017-06-25T00:23:29.224Z,935.01
2017-06-25T00:24:40.400Z,935.02
2017-06-25T00:25:08.579Z,935.02
2017-06-25T00:25:36.891Z,935.06
2017-06-25T00:26:05.177Z,935.06
2017-06-25T00:26:33.449Z,935.07
2017-06-25T00:27:01.640Z,935.06
2017-06-25T00:27:29.842Z,935.07
2017-06-25T00:27:58.048Z,935.07
2017-06-25T00:28:26.236Z,935.07
2017-06-25T00:28:54.423Z,935.1
2017-06-25T00:29:22.516Z,935.16
2017-06-25T00:30:33.794Z,935.11
2017-06-25T00:31:01.879Z,935.12
2017-06-25T00:31:30.099Z,935.13
2017-06-25T00:31:58.383Z,935.15
2017-06-25T00:32:26.566Z,935.1
2017-06-25T00:32:54.760Z,935.12
2017-06-25T00:33:22.956Z,935.15
2017-06-25T00:33:51.069Z,935.15
2017-06-25T00:34:19.347Z,935.24
2017-06-25T00:34:47.628Z,935.12
2017-06-25T00:35:15.811Z,935.19
2017-06-25T00:36:26.985Z,935.16
2017-06-25T00:36:55.162Z,935.16
2017-06-25T00:37:23.387Z,935.18
2017-06-25T00:37:51.576Z,935.16
2017-06-25T00:38:19.759Z,935.14
2017-06-25T00:38:47.956Z,935.16
2017-06-25T00:39:16.060Z,935.19
2017-06-25T00:39:44.078Z,935.14
2017-06-25T00:40:12.354Z,935.22
2017-06-25T00:40:40.633Z,935.21
2017-06-25T00:41:08.819Z,935.16
2017-06-25T00:42:20.183Z,935.16
2017-06-25T00:42:48.365Z,935.18
2017-06-25T00:43:16.579Z,935.17
2017-06-25T00:43:44.864Z,935.19
2017-06-25T00:44:13.043Z,935.2
2017-06-25T00:44:41.235Z,935.17
2017-06-25T00:45:09.533Z,935.21
2017-06-25T00:45:37.640Z,935.16
2017-06-25T00:46:05.918Z,935.17
2017-06-25T00:46:34.099Z,935.19
2017-06-25T00:47:02.288Z,935.15
2017-06-25T00:48:13.556Z,935.15
2017-06-25T00:48:41.739Z,935.2
2017-06-25T00:49:10.054Z,935.17
2017-06-25T00:49:38.345Z,935.16
2017-06-25T00:50:06.614Z,935.17
2017-06-25T00:50:34.907Z,935.18
2017-06-25T00:51:03.104Z,935.19
2017-06-25T00:51:31.122Z,935.15
2017-06-25T00:51:59.209Z,935.15
2017-06-25T00:52:27.394Z,935.17
2017-06-25T00:52:55.585Z,935.18
2017-06-25T00:54:06.859Z,935.17
2017-06-25T00:54:34.945Z,935.15
2017-06-25T00:55:03.070Z,935.17
2017-06-25T00:55:31.261Z,935.2
2017-06-25T00:55:59.532Z,935.15
2017-06-25T00:56:27.728Z,935.15
2017-06-25T00:56:55.922Z,935.15
2017-06-25T00:57:23.941Z,935.15
2017-06-25T00:57:52.216Z,935.12
2017-06-25T00:58:20.487Z,935.14
2017-06-25T00:58:48.674Z,935.14
2017-06-25T00:59:59.951Z,935.14
2017-06-25T01:00:28.041Z,935.21
2017-06-25T01:00:56.261Z,935.18
2017-06-25T01:01:24.453Z,935.18
2017-06-25T01:01:52.532Z,935.2
2017-06-25T01:02:20.723Z,935.21
2017-06-25T01:02:48.926Z,935.17
2017-06-25T01:03:17.037Z,935.2
2017-06-25T01:03:45.225Z,935.19
2017-06-25T01:04:13.417Z,935.24
2017-06-25T01:04:41.698Z,935.2
2017-06-25T01:05:52.969Z,935.17
2017-06-25T01:06:21.245Z,935.15
2017-06-25T01:06:49.368Z,935.13
2017-06-25T01:07:17.659Z,935.15
2017-06-25T01:07:45.835Z,935.16
2017-06-25T01:08:14.026Z,935.15
2017-06-25T01:08:42.321Z,935.12
2017-06-25T01:09:10.529Z,935.17
2017-06-25T01:09:38.617Z,935.17
2017-06-25T01:10:06.888Z,935.17
2017-06-25T01:10:35.174Z,935.16
2017-06-25T01:11:46.445Z,935.25
2017-06-25T01:12:14.630Z,935.12
2017-06-25T01:12:42.865Z,935.15
2017-06-25T01:13:11.051Z,935.1
2017-06-25T01:13:39.235Z,935.12
2017-06-25T01:14:07.521Z,935.13
2017-06-25T01:14:35.815Z,935.13
2017-06-25T01:15:04.040Z,935.13
2017-06-25T01:15:32.135Z,935.12
2017-06-25T01:16:00.409Z,935.11
2017-06-25T01:16:28.597Z,935.12
2017-06-25T01:17:39.867Z,935.15
2017-06-25T01:18:08.051Z,935.14
2017-06-25T01:18:36.366Z,935.13
2017-06-25T01:19:04.269Z,935.16
2017-06-25T01:19:32.541Z,935.11
2017-06-25T01:20:00.829Z,935.17
2017-06-25T01:20:29.126Z,935.13
2017-06-25T01:20:57.235Z,935.14
2017-06-25T01:21:25.131Z,935.13
2017-06-25T01:21:53.401Z,935.11
2017-06-25T01:22:21.395Z,935.15
2017-06-25T01:23:32.764Z,935.14
2017-06-25T01:24:00.941Z,935.15
2017-06-25T01:24:29.253Z,935.16
2017-06-25T01:24:57.442Z,935.18
2017-06-25T01:25:25.714Z,935.13
2017-06-25T01:25:54.006Z,935.23
2017-06-25T01:26:22.301Z,935.13
2017-06-25T01:26:50.322Z,935.1
2017-06-25T01:27:18.312Z,935.12
2017-06-25T01:27:46.590Z,935.14
2017-06-25T01:28:14.871Z,935.19
2017-06-25T01:29:26.240Z,935.11
2017-06-25T01:29:54.510Z,935.13
2017-06-25T01:30:22.731Z,935.17
2017-06-25T01:30:50.831Z,935.17
2017-06-25T01:31:19.013Z,935.14
2017-06-25T01:31:47.207Z,935.16
2017-06-25T01:32:15.501Z,935.16
2017-06-25T01:32:43.605Z,935.2
2017-06-25T01:33:11.604Z,935.18
2017-06-25T01:33:39.790Z,935.18
2017-06-25T01:34:08.069Z,935.19
2017-06-25T01:35:19.436Z,935.21
2017-06-25T01:35:47.617Z,935.17
2017-06-25T01:36:15.929Z,935.18
2017-06-25T01:36:44.210Z,935.22
2017-06-25T01:37:12.480Z,935.2
2017-06-25T01:37:40.578Z,935.21
2017-06-25T01:38:08.876Z,935.22
2017-06-25T01:38:36.987Z,935.2
2017-06-25T01:39:05.164Z,935.22
2017-06-25T01:39:33.436Z,935.22
2017-06-25T01:40:01.533Z,935.19
2017-06-25T01:41:12.804Z,935.24
2017-06-25T01:41:40.900Z,935.23
2017-06-25T01:42:09.120Z,935.27
2017-06-25T01:42:37.129Z,935.23
2017-06-25T01:43:05.403Z,935.23
2017-06-25T01:43:33.690Z,935.3
2017-06-25T01:44:01.804Z,935.26
2017-06-25T01:44:29.913Z,935.26
2017-06-25T01:44:57.902Z,935.25
2017-06-25T01:45:26.176Z,935.26
2017-06-25T01:45:54.368Z,935.34
2017-06-25T01:47:05.541Z,935.26
2017-06-25T01:47:33.724Z,935.26
2017-06-25T01:48:01.943Z,935.24
2017-06-25T01:48:30.041Z,935.25
2017-06-25T01:48:58.218Z,935.27
2017-06-25T01:49:26.405Z,935.29
2017-06-25T01:49:54.606Z,935.26
2017-06-25T01:50:22.809Z,935.29
2017-06-25T01:50:51.089Z,935.29
2017-06-25T01:51:19.367Z,935.26
2017-06-25T01:51:47.556Z,935.25
2017-06-25T01:52:58.828Z,935.26
2017-06-25T01:53:27.010Z,935.25
2017-06-25T01:53:55.326Z,935.26
2017-06-25T01:54:23.330Z,935.25
2017-06-25T01:54:51.604Z,935.24
2017-06-25T01:55:19.897Z,935.21
2017-06-25T01:55:48.194Z,935.28
2017-06-25T01:56:16.493Z,935.21
2017-06-25T01:56:44.674Z,935.23
2017-06-25T01:57:12.853Z,935.24
2017-06-25T01:57:41.138Z,935.25
2017-06-25T01:58:52.510Z,935.25
2017-06-25T01:59:20.708Z,935.24
2017-06-25T01:59:49.004Z,935.21
2017-06-25T02:00:17.102Z,935.23
2017-06-25T02:00:45.370Z,935.24
2017-06-25T02:01:13.467Z,935.27
2017-06-25T02:01:41.672Z,935.23
2017-06-25T02:02:09.972Z,935.23
2017-06-25T02:02:38.060Z,935.27
2017-06-25T02:03:06.335Z,935.24
2017-06-25T02:03:34.615Z,935.2
2017-06-25T02:04:45.979Z,935.22
2017-06-25T02:05:13.977Z,935.27
2017-06-25T02:05:42.285Z,935.2
2017-06-25T02:06:10.285Z,935.22
2017-06-25T02:06:38.557Z,935.28
2017-06-25T02:07:06.655Z,935.25
2017-06-25T02:07:34.951Z,935.17
2017-06-25T02:08:03.248Z,935.26
2017-06-25T02:08:31.434Z,935.23
2017-06-25T02:08:59.711Z,935.22
2017-06-25T02:09:27.897Z,935.28
2017-06-25T02:10:39.265Z,935.23
2017-06-25T02:11:07.443Z,935.25
2017-06-25T02:11:35.752Z,935.2
2017-06-25T02:12:03.939Z,935.27
2017-06-25T02:12:32.118Z,935.23
2017-06-25T02:13:00.309Z,935.31
2017-06-25T02:13:28.511Z,935.18
2017-06-25T02:13:56.810Z,935.22
2017-06-25T02:14:24.899Z,935.19
2017-06-25T02:14:53.174Z,935.15
2017-06-25T02:15:21.266Z,935.18
2017-06-25T02:16:32.544Z,935.25
2017-06-25T02:17:00.812Z,935.2
2017-06-25T02:17:29.128Z,935.18
2017-06-25T02:17:57.223Z,935.2
2017-06-25T02:18:25.500Z,935.22
2017-06-25T02:18:53.692Z,935.22
2017-06-25T02:19:21.901Z,935.18
2017-06-25T02:19:50.015Z,935.15
2017-06-25T02:20:18.101Z,935.22
2017-06-25T02:20:46.373Z,935.23
2017-06-25T02:21:14.561Z,935.26
2017-06-25T02:22:25.644Z,935.2
2017-06-25T02:22:53.820Z,935.16
2017-06-25T02:23:21.946Z,935.18
2017-06-25T02:23:49.960Z,935.17
2017-06-25T02:24:18.142Z,935.17
2017-06-25T02:24:46.421Z,935.15
2017-06-25T02:25:14.721Z,935.14
2017-06-25T02:25:43.023Z,935.18
2017-06-25T02:26:11.109Z,935.2
2017-06-25T02:26:39.386Z,935.14
2017-06-25T02:27:07.665Z,935.17
2017-06-25T02:28:18.936Z,935.16
2017-06-25T02:28:47.018Z,935.17
2017-06-25T02:29:15.143Z,935.17
2017-06-25T02:29:43.236Z,935.15
2017-06-25T02:30:11.505Z,935.16
2017-06-25T02:30:39.790Z,935.15
2017-06-25T02:31:08.087Z,935.15
2017-06-25T02:31:36.287Z,935.14
2017-06-25T02:32:04.372Z,935.13
2017-06-25T02:32:32.645Z,935.15
2017-06-25T02:33:00.925Z,935.17
2017-06-25T02:34:12.292Z,935.13
2017-06-25T02:34:40.381Z,935.09
2017-06-25T02:35:08.690Z,935.15
2017-06-25T02:35:36.691Z,935.12
2017-06-25T02:36:04.960Z,935.13
2017-06-25T02:36:33.152Z,935.11
2017-06-25T02:37:01.448Z,935.12
2017-06-25T02:37:29.654Z,935.09
2017-06-25T02:37:57.930Z,935.12
2017-06-25T02:38:26.208Z,935.12
2017-06-25T02:38:54.489Z,935.08
2017-06-25T02:40:05.667Z,935.13
2017-06-25T02:40:33.940Z,935.11
2017-06-25T02:41:02.248Z,935.08
2017-06-25T02:41:30.527Z,935.11
2017-06-25T02:41:58.706Z,935.05
2017-06-25T02:42:26.986Z,935.1
2017-06-25T02:42:55.094Z,935.08
2017-06-25T02:43:23.293Z,935.06
2017-06-25T02:43:51.476Z,935.04
2017-06-25T02:44:19.752Z,935
2017-06-25T02:44:47.940Z,935.02
2017-06-25T02:45:59.309Z,935.01
2017-06-25T02:46:27.488Z,935.05
2017-06-25T02:46:55.800Z,935.04
2017-06-25T02:47:23.900Z,935.01
2017-06-25T02:47:52.175Z,935.04
2017-06-25T02:48:20.370Z,935.03
2017-06-25T02:48:48.575Z,935.03
2017-06-25T02:49:16.784Z,935.02
2017-06-25T02:49:45.063Z,935.02
2017-06-25T02:50:13.245Z,935.03
2017-06-25T02:50:41.436Z,934.97
2017-06-25T02:51:52.604Z,934.98
2017-06-25T02:52:20.778Z,934.97
2017-06-25T02:52:48.902Z,935
2017-06-25T02:53:16.994Z,934.99
2017-06-25T02:53:45.082Z,934.98
2017-06-25T02:54:13.371Z,934.97
2017-06-25T02:54:41.572Z,935
2017-06-25T02:55:09.681Z,934.98
2017-06-25T02:55:37.769Z,934.96
2017-06-25T02:56:05.947Z,934.95
2017-06-25T02:56:34.226Z,934.95
2017-06-25T02:57:45.595Z,934.95
2017-06-25T02:58:13.866Z,934.92
2017-06-25T02:58:42.085Z,934.91
2017-06-25T02:59:10.368Z,934.92
2017-06-25T02:59:38.551Z,934.91
2017-06-25T03:00:06.839Z,934.92
2017-06-25T03:00:35.130Z,934.95
2017-06-25T03:01:03.335Z,934.88
2017-06-25T03:01:31.515Z,934.87
2017-06-25T03:01:59.791Z,934.88
2017-06-25T03:02:28.072Z,934.88
2017-06-25T03:03:39.343Z,934.89
2017-06-25T03:04:07.625Z,934.85
2017-06-25T03:04:35.842Z,934.87
2017-06-25T03:05:03.937Z,934.97
2017-06-25T03:05:32.210Z,934.9
2017-06-25T03:06:00.490Z,934.83
2017-06-25T03:06:28.787Z,934.85
2017-06-25T03:06:56.988Z,934.84
2017-06-25T03:07:25.171Z,934.79
2017-06-25T03:07:53.345Z,934.78
2017-06-25T03:08:21.536Z,934.81
2017-06-25T03:09:32.903Z,934.81
2017-06-25T03:10:01.174Z,934.89
2017-06-25T03:10:29.391Z,934.82
2017-06-25T03:10:57.581Z,934.81
2017-06-25T03:11:25.853Z,934.78
2017-06-25T03:11:54.137Z,934.78
2017-06-25T03:12:22.343Z,934.75
2017-06-25T03:12:50.454Z,934.74
2017-06-25T03:13:18.639Z,934.76
2017-06-25T03:13:46.722Z,934.74
2017-06-25T03:14:15.005Z,934.74
2017-06-25T03:15:26.279Z,934.76
2017-06-25T03:15:54.552Z,934.76
2017-06-25T03:16:22.864Z,934.73
2017-06-25T03:16:51.051Z,934.76
2017-06-25T03:17:19.136Z,934.75
2017-06-25T03:17:47.329Z,934.72
2017-06-25T03:18:15.532Z,934.71
2017-06-25T03:18:43.831Z,934.72
2017-06-25T03:19:12.015Z,934.72
2017-06-25T03:19:40.191Z,934.76
2017-06-25T03:20:08.474Z,934.73
2017-06-25T03:21:19.843Z,934.88
2017-06-25T03:21:48.115Z,934.67
2017-06-25T03:22:16.429Z,934.68
2017-06-25T03:22:44.525Z,934.68
2017-06-25T03:23:12.610Z,934.68
2017-06-25T03:23:40.800Z,934.66
2017-06-25T03:24:08.997Z,934.68
2017-06-25T03:24:37.107Z,934.68
2017-06-25T03:25:05.292Z,934.68
2017-06-25T03:25:33.571Z,934.72
2017-06-25T03:26:01.758Z,934.72
2017-06-25T03:27:13.034Z,934.69
2017-06-25T03:27:41.216Z,934.72
2017-06-25T03:28:09.433Z,934.7
2017-06-25T03:28:37.626Z,934.69
2017-06-25T03:29:05.905Z,934.69
2017-06-25T03:29:34.192Z,934.69
2017-06-25T03:30:02.304Z,934.7
2017-06-25T03:30:30.414Z,934.68
2017-06-25T03:30:58.501Z,934.67
2017-06-25T03:31:26.779Z,934.68
2017-06-25T03:31:55.062Z,934.67
2017-06-25T03:33:06.333Z,934.69
2017-06-25T03:33:34.608Z,934.72
2017-06-25T03:34:02.825Z,934.7
2017-06-25T03:34:30.924Z,934.7
2017-06-25T03:34:59.198Z,934.67
2017-06-25T03:35:27.388Z,934.66
2017-06-25T03:35:55.683Z,934.63
2017-06-25T03:36:23.886Z,934.61
2017-06-25T03:36:52.163Z,934.6
2017-06-25T03:37:20.339Z,934.6
2017-06-25T03:37:48.529Z,934.61
2017-06-25T03:38:59.893Z,934.61
2017-06-25T03:39:28.166Z,934.62
2017-06-25T03:39:56.383Z,934.6
2017-06-25T03:40:24.569Z,934.65
2017-06-25T03:40:52.751Z,934.62
2017-06-25T03:41:20.937Z,934.68
2017-06-25T03:41:49.136Z,934.59
2017-06-25T03:42:17.437Z,934.58
2017-06-25T03:42:45.711Z,934.59
2017-06-25T03:43:13.981Z,934.62
2017-06-25T03:43:42.167Z,934.62
2017-06-25T03:44:53.534Z,934.56
2017-06-25T03:45:21.804Z,934.57
2017-06-25T03:45:50.023Z,934.52
2017-06-25T03:46:18.214Z,934.54
2017-06-25T03:46:46.485Z,934.54
2017-06-25T03:47:14.679Z,934.55
2017-06-25T03:47:42.978Z,934.54
2017-06-25T03:48:11.096Z,934.52
2017-06-25T03:48:39.282Z,934.52
2017-06-25T03:49:07.559Z,934.55
2017-06-25T03:49:35.844Z,934.57
2017-06-25T03:50:47.015Z,934.56
2017-06-25T03:51:15.198Z,934.53
2017-06-25T03:51:43.418Z,934.5
2017-06-25T03:52:11.613Z,934.52
2017-06-25T03:52:39.886Z,934.52
2017-06-25T03:53:08.080Z,934.51
2017-06-25T03:53:36.372Z,934.52
2017-06-25T03:54:04.669Z,934.47
2017-06-25T03:54:32.855Z,934.46
2017-06-25T03:55:01.127Z,934.5
2017-06-25T03:55:29.414Z,934.46
2017-06-25T03:56:40.680Z,934.46
2017-06-25T03:57:08.952Z,934.46
2017-06-25T03:57:37.165Z,934.43
2017-06-25T03:58:05.452Z,934.43
2017-06-25T03:58:33.728Z,934.39
2017-06-25T03:59:02.016Z,934.34
2017-06-25T03:59:30.314Z,934.36
2017-06-25T03:59:58.522Z,934.39
2017-06-25T04:00:26.628Z,934.37
2017-06-25T04:00:54.905Z,934.35
2017-06-25T04:01:23.192Z,934.34
2017-06-25T04:02:34.552Z,934.36
2017-06-25T04:03:02.827Z,934.38
2017-06-25T04:03:31.047Z,934.35
2017-06-25T04:03:59.144Z,934.37
2017-06-25T04:04:27.421Z,934.37
2017-06-25T04:04:55.708Z,934.35
2017-06-25T04:05:23.914Z,934.36
2017-06-25T04:05:52.208Z,934.35
2017-06-25T04:06:20.483Z,934.36
2017-06-25T04:06:48.756Z,934.33
2017-06-25T04:07:17.038Z,934.41
2017-06-25T04:08:28.307Z,934.34
2017-06-25T04:08:56.583Z,934.33
2017-06-25T04:09:24.805Z,934.35
2017-06-25T04:09:53.088Z,934.33
2017-06-25T04:10:21.362Z,934.31
2017-06-25T04:10:49.650Z,934.33
2017-06-25T04:11:17.851Z,934.28
2017-06-25T04:11:46.151Z,934.26
2017-06-25T04:12:14.329Z,934.23
2017-06-25T04:12:42.604Z,934.26
2017-06-25T04:13:10.886Z,934.21
2017-06-25T04:14:22.252Z,934.22
2017-06-25T04:14:50.434Z,934.21
2017-06-25T04:15:18.649Z,934.19
2017-06-25T04:15:46.747Z,934.2
2017-06-25T04:16:14.924Z,934.2
2017-06-25T04:16:43.209Z,934.23
2017-06-25T04:17:11.504Z,934.24
2017-06-25T04:17:39.711Z,934.29
2017-06-25T04:18:07.887Z,934.29
2017-06-25T04:18:36.165Z,934.22
2017-06-25T04:19:04.446Z,934.22
2017-06-25T04:20:15.814Z,934.19
2017-06-25T04:20:44.086Z,934.2
2017-06-25T04:21:12.397Z,934.21
2017-06-25T04:21:40.488Z,934.19
2017-06-25T04:22:08.765Z,934.21
2017-06-25T04:22:36.963Z,934.17
2017-06-25T04:23:05.258Z,934.17
2017-06-25T04:23:33.463Z,934.18
2017-06-25T04:24:01.646Z,934.15
2017-06-25T04:24:29.921Z,934.17
2017-06-25T04:24:58.112Z,934.16
2017-06-25T04:26:09.476Z,934.17
2017-06-25T04:26:37.658Z,934.14
2017-06-25T04:27:05.973Z,934.13
2017-06-25T04:27:34.067Z,934.13
2017-06-25T04:28:02.248Z,934.15
2017-06-25T04:28:30.531Z,934.17
2017-06-25T04:28:58.734Z,934.15
2017-06-25T04:29:26.936Z,934.16
2017-06-25T04:29:55.112Z,934.1
2017-06-25T04:30:23.387Z,934.12
2017-06-25T04:30:51.483Z,934.1
2017-06-25T04:32:02.751Z,934.09
2017-06-25T04:32:30.935Z,934.09
2017-06-25T04:32:59.246Z,934.07
2017-06-25T04:33:27.242Z,934.08
2017-06-25T04:33:55.511Z,934.09
2017-06-25T04:34:23.611Z,934.09
2017-06-25T04:34:51.908Z,934.07
2017-06-25T04:35:20.017Z,934.07
2017-06-25T04:35:48.102Z,934.06
2017-06-25T04:36:16.286Z,934.03
2017-06-25T04:36:44.474Z,934.05
2017-06-25T04:37:55.834Z,934.08
2017-06-25T04:38:24.109Z,934.04
2017-06-25T04:38:52.422Z,934.06
2017-06-25T04:39:20.707Z,934.05
2017-06-25T04:39:48.976Z,934.04
2017-06-25T04:40:17.265Z,934.01
2017-06-25T04:40:45.372Z,934.03
2017-06-25T04:41:13.580Z,934.04
2017-06-25T04:41:41.667Z,934.05
2017-06-25T04:42:09.942Z,934
2017-06-25T04:42:38.133Z,933.99
2017-06-25T04:43:49.500Z,934.01
2017-06-25T04:44:17.682Z,934
2017-06-25T04:44:45.994Z,934.04
2017-06-25T04:45:14.274Z,934.02
2017-06-25T04:45:42.544Z,933.96
2017-06-25T04:46:10.638Z,933.97
2017-06-25T04:46:38.747Z,933.97
2017-06-25T04:47:06.952Z,933.99
2017-06-25T04:47:34.947Z,933.97
2017-06-25T04:48:03.225Z,933.95
2017-06-25T04:48:31.511Z,934
2017-06-25T04:49:42.875Z,933.95
2017-06-25T04:50:11.049Z,933.91
2017-06-25T04:50:39.363Z,933.93
2017-06-25T04:51:07.465Z,933.93
2017-06-25T04:51:35.739Z,933.93
2017-06-25T04:52:04.045Z,933.9
2017-06-25T04:52:32.250Z,933.88
2017-06-25T04:53:00.549Z,933.9
2017-06-25T04:53:28.736Z,933.85
2017-06-25T04:53:57.005Z,933.88
2017-06-25T04:54:25.192Z,933.87
2017-06-25T04:55:36.463Z,933.87
2017-06-25T04:56:04.647Z,933.87
2017-06-25T04:56:32.957Z,933.85
2017-06-25T04:57:01.146Z,933.86
2017-06-25T04:57:29.421Z,933.89
2017-06-25T04:57:57.704Z,933.85
2017-06-25T04:58:26.003Z,933.83
2017-06-25T04:58:54.117Z,933.86
2017-06-25T04:59:22.303Z,933.86
2017-06-25T04:59:50.393Z,933.84
2017-06-25T05:00:18.675Z,933.85
2017-06-25T05:01:30.039Z,933.86
2017-06-25T05:01:58.311Z,933.85
2017-06-25T05:02:26.530Z,933.87
2017-06-25T05:02:54.629Z,933.84
2017-06-25T05:03:22.903Z,933.85
2017-06-25T05:03:51.001Z,933.86
2017-06-25T05:04:19.296Z,933.83
2017-06-25T05:04:47.499Z,933.87
2017-06-25T05:05:15.682Z,933.85
2017-06-25T05:05:43.954Z,933.86
2017-06-25T05:06:12.236Z,933.85
2017-06-25T05:07:23.601Z,933.83
2017-06-25T05:07:51.784Z,933.87
2017-06-25T05:08:20.000Z,933.84
2017-06-25T05:08:48.187Z,933.79
2017-06-25T05:09:16.369Z,933.84
2017-06-25T05:09:44.560Z,933.87
2017-06-25T05:10:12.859Z,933.83
2017-06-25T05:10:41.065Z,933.86
2017-06-25T05:11:09.342Z,933.84
2017-06-25T05:11:37.617Z,933.81
2017-06-25T05:12:05.802Z,933.86
2017-06-25T05:13:17.072Z,933.86
2017-06-25T05:13:45.345Z,933.84
2017-06-25T05:14:13.657Z,933.84
2017-06-25T05:14:41.946Z,933.86
2017-06-25T05:15:10.220Z,933.88
2017-06-25T05:15:38.412Z,933.84
2017-06-25T05:16:06.707Z,933.83
2017-06-25T05:16:34.913Z,933.85
2017-06-25T05:17:03.187Z,933.85
2017-06-25T05:17:31.466Z,933.86
2017-06-25T05:17:59.750Z,933.86
2017-06-25T05:19:11.115Z,933.88
2017-06-25T05:19:39.300Z,933.81
2017-06-25T05:20:07.617Z,933.83
2017-06-25T05:20:35.905Z,933.83
2017-06-25T05:21:04.174Z,933.83
2017-06-25T05:21:32.461Z,933.83
2017-06-25T05:22:00.754Z,933.84
2017-06-25T05:22:28.959Z,933.81
2017-06-25T05:22:57.236Z,933.8
2017-06-25T05:23:25.507Z,933.81
2017-06-25T05:23:53.701Z,933.8
2017-06-25T05:25:05.061Z,933.82
2017-06-25T05:25:33.242Z,933.81
2017-06-25T05:26:01.548Z,933.83
2017-06-25T05:26:29.553Z,933.81
2017-06-25T05:26:57.828Z,933.8
2017-06-25T05:27:26.017Z,933.8
2017-06-25T05:27:54.317Z,933.81
2017-06-25T05:28:22.524Z,933.81
2017-06-25T05:28:50.799Z,933.84
2017-06-25T05:29:19.072Z,933.81
2017-06-25T05:29:47.357Z,933.81
2017-06-25T05:30:58.729Z,933.8
2017-06-25T05:31:26.996Z,933.79
2017-06-25T05:31:55.215Z,933.85
2017-06-25T05:32:23.128Z,933.81
2017-06-25T05:32:51.402Z,933.82
2017-06-25T05:33:19.496Z,933.78
2017-06-25T05:33:47.793Z,933.8
2017-06-25T05:34:15.997Z,933.77
2017-06-25T05:34:44.179Z,933.8
2017-06-25T05:35:12.359Z,933.81
2017-06-25T05:35:40.641Z,933.83
2017-06-25T05:36:52.006Z,933.86
2017-06-25T05:37:20.092Z,933.81
2017-06-25T05:37:48.401Z,933.81
2017-06-25T05:38:16.587Z,933.83
2017-06-25T05:38:44.861Z,933.81
2017-06-25T05:39:13.143Z,933.8
2017-06-25T05:39:41.349Z,933.76
2017-06-25T05:40:09.462Z,933.81
2017-06-25T05:40:37.646Z,933.77
2017-06-25T05:41:05.829Z,933.85
2017-06-25T05:41:34.112Z,933.86
2017-06-25T05:42:45.379Z,933.88
2017-06-25T05:43:13.562Z,933.78
2017-06-25T05:43:41.878Z,933.82
2017-06-25T05:44:10.064Z,933.79
2017-06-25T05:44:38.248Z,933.79
2017-06-25T05:45:06.530Z,933.78
2017-06-25T05:45:34.631Z,933.78
2017-06-25T05:46:02.931Z,933.83
2017-06-25T05:46:31.114Z,933.74
2017-06-25T05:46:59.388Z,933.77
2017-06-25T05:47:27.577Z,933.76
2017-06-25T05:48:38.942Z,933.73
2017-06-25T05:49:07.125Z,933.75
2017-06-25T05:49:35.246Z,933.8
2017-06-25T05:50:03.532Z,933.77
2017-06-25T05:50:31.715Z,933.76
2017-06-25T05:50:59.999Z,933.76
2017-06-25T05:51:28.199Z,933.77
2017-06-25T05:51:56.492Z,933.81
2017-06-25T05:52:24.488Z,933.77
2017-06-25T05:52:52.671Z,933.73
2017-06-25T05:53:20.856Z,933.77
2017-06-25T05:54:32.024Z,933.79
2017-06-25T05:55:00.210Z,933.81
2017-06-25T05:55:28.520Z,933.79
2017-06-25T05:55:56.709Z,933.82
2017-06-25T05:56:24.981Z,933.78
2017-06-25T05:56:53.265Z,933.77
2017-06-25T05:57:21.558Z,933.82
2017-06-25T05:57:49.855Z,933.77
2017-06-25T05:58:17.941Z,933.83
2017-06-25T05:58:46.209Z,933.81
2017-06-25T05:59:14.399Z,933.79
2017-06-25T06:00:25.769Z,933.79
2017-06-25T06:00:53.953Z,933.81
2017-06-25T06:01:22.170Z,933.81
2017-06-25T06:01:50.358Z,933.8
2017-06-25T06:02:18.633Z,933.83
2017-06-25T06:02:46.826Z,933.89
2017-06-25T06:03:15.034Z,933.85
2017-06-25T06:03:43.333Z,933.87
2017-06-25T06:04:11.519Z,933.88
2017-06-25T06:04:39.794Z,933.92
2017-06-25T06:05:08.077Z,933.94
2017-06-25T06:06:19.442Z,933.91
2017-06-25T06:06:47.624Z,933.93
2017-06-25T06:07:15.935Z,933.95
2017-06-25T06:07:44.123Z,933.96
2017-06-25T06:08:12.398Z,934.01
2017-06-25T06:08:40.686Z,934.02
2017-06-25T06:09:08.981Z,934.04
2017-06-25T06:09:37.090Z,934.09
2017-06-25T06:10:05.275Z,934.1
2017-06-25T06:10:33.361Z,934.12
2017-06-25T06:11:01.547Z,934.13
2017-06-25T06:12:12.815Z,934.08
2017-06-25T06:12:41.084Z,934.17
2017-06-25T06:13:09.394Z,934.16
2017-06-25T06:13:37.583Z,934.15
2017-06-25T06:14:05.860Z,934.13
2017-06-25T06:14:34.145Z,934.16
2017-06-25T06:15:02.440Z,934.2
2017-06-25T06:15:30.358Z,934.14
2017-06-25T06:15:58.540Z,934.14
2017-06-25T06:16:26.621Z,934.14
2017-06-25T06:16:54.898Z,934.14
2017-06-25T06:18:05.979Z,934.12
2017-06-25T06:18:34.246Z,934.11
2017-06-25T06:19:02.465Z,934.07
2017-06-25T06:19:30.748Z,934.07
2017-06-25T06:19:59.022Z,934.07
2017-06-25T06:20:27.117Z,934.1
2017-06-25T06:20:55.413Z,934.05
2017-06-25T06:21:23.618Z,934.06
2017-06-25T06:21:51.887Z,934.02
2017-06-25T06:22:20.067Z,934.07
2017-06-25T06:22:48.352Z,934.05
2017-06-25T06:23:59.718Z,934.04
2017-06-25T06:24:27.898Z,934.04
2017-06-25T06:24:56.115Z,934.01
2017-06-25T06:25:24.211Z,933.99
2017-06-25T06:25:52.389Z,934.03
2017-06-25T06:26:20.491Z,934.02
2017-06-25T06:26:48.782Z,934.01
2017-06-25T06:27:17.010Z,934.04
2017-06-25T06:27:45.100Z,934.03
2017-06-25T06:28:13.370Z,934.01
2017-06-25T06:28:41.649Z,934
2017-06-25T06:29:52.927Z,933.98
2017-06-25T06:30:21.106Z,934.03
2017-06-25T06:30:49.324Z,934.04
2017-06-25T06:31:17.510Z,934
2017-06-25T06:31:45.688Z,934.04
2017-06-25T06:32:13.884Z,934.02
2017-06-25T06:32:42.083Z,934.03
2017-06-25T06:33:10.201Z,934.03
2017-06-25T06:33:38.477Z,934.01
2017-06-25T06:34:06.565Z,934.04
2017-06-25T06:34:34.847Z,934.02
2017-06-25T06:35:46.023Z,933.99
2017-06-25T06:36:14.300Z,934.05
2017-06-25T06:36:42.519Z,934.03
2017-06-25T06:37:10.713Z,934.01
2017-06-25T06:37:38.986Z,933.98
2017-06-25T06:38:07.170Z,934
2017-06-25T06:38:35.372Z,933.99
2017-06-25T06:39:03.573Z,934.02
2017-06-25T06:39:31.755Z,933.99
2017-06-25T06:39:59.939Z,933.98
2017-06-25T06:40:28.224Z,933.97
2017-06-25T06:41:39.495Z,933.96
2017-06-25T06:42:07.580Z,933.97
2017-06-25T06:42:35.892Z,933.94
2017-06-25T06:43:04.081Z,933.98